createdAt,value
2019-05-18T00:00:04.949Z,11.60
2019-05-18T00:02:34.744Z,11.60
2019-05-18T00:05:04.680Z,11.50
2019-05-18T00:07:36.560Z,11.40
2019-05-18T00:10:08.661Z,11.40
2019-05-18T00:12:38.374Z,11.30
2019-05-18T00:15:08.676Z,11.30
2019-05-18T00:17:38.116Z,11.20
2019-05-18T00:20:08.552Z,11.20
2019-05-18T00:22:37.892Z,11.10
2019-05-18T00:25:07.661Z,11.10
2019-05-18T00:27:37.063Z,11.10
2019-05-18T00:30:07.932Z,11.10
2019-05-18T00:32:37.949Z,11.00
2019-05-18T00:35:07.924Z,11.10
2019-05-18T00:37:42.890Z,11.00
2019-05-18T00:40:12.456Z,11.00
2019-05-18T00:42:41.847Z,11.00
2019-05-18T00:45:12.129Z,11.00
2019-05-18T00:47:42.560Z,10.90
2019-05-18T00:50:13.643Z,11.00
2019-05-18T00:52:43.060Z,10.90
2019-05-18T00:55:12.780Z,10.80
2019-05-18T00:57:42.180Z,10.70
2019-05-18T01:00:13.429Z,10.70
2019-05-18T01:02:43.254Z,10.60
2019-05-18T01:05:14.504Z,10.60
2019-05-18T01:07:45.506Z,10.50
2019-05-18T01:10:16.740Z,10.40
2019-05-18T01:12:48.653Z,10.30
2019-05-18T01:15:18.362Z,10.20
2019-05-18T01:17:57.533Z,10.20
2019-05-18T01:20:20.662Z,10.20
2019-05-18T01:22:53.797Z,10.10
2019-05-18T01:25:26.853Z,10.00
2019-05-18T01:27:56.208Z,10.00
2019-05-18T01:30:27.435Z,9.90
2019-05-18T01:32:57.371Z,9.90
2019-05-18T01:35:27.942Z,9.80
2019-05-18T01:37:58.222Z,9.90
2019-05-18T01:40:27.574Z,9.80
2019-05-18T01:42:57.920Z,9.70
2019-05-18T01:45:27.280Z,9.70
2019-05-18T01:48:12.648Z,9.70
2019-05-18T01:50:29.453Z,9.50
2019-05-18T01:52:59.217Z,9.50
2019-05-18T01:55:31.117Z,9.50
2019-05-18T01:58:00.486Z,9.50
2019-05-18T02:00:30.448Z,9.40
2019-05-18T02:03:00.065Z,9.30
2019-05-18T02:05:29.956Z,9.30
2019-05-18T02:08:00.177Z,9.30
2019-05-18T02:10:29.532Z,9.30
2019-05-18T02:12:59.072Z,9.40
2019-05-18T02:15:31.287Z,9.50
2019-05-18T02:18:01.341Z,9.50
2019-05-18T02:20:34.360Z,9.50
2019-05-18T02:23:05.001Z,9.40
2019-05-18T02:25:35.075Z,9.50
2019-05-18T02:28:07.666Z,9.50
2019-05-18T02:30:37.914Z,9.50
2019-05-18T02:33:08.043Z,9.50
2019-05-18T02:35:39.647Z,9.60
2019-05-18T02:38:19.430Z,9.50
2019-05-18T02:40:49.751Z,9.40
2019-05-18T02:43:19.974Z,9.30
2019-05-18T02:45:50.558Z,9.40
2019-05-18T02:48:21.035Z,9.30
2019-05-18T02:50:52.569Z,9.20
2019-05-18T02:53:22.438Z,9.30
2019-05-18T02:55:51.867Z,9.30
2019-05-18T02:58:21.807Z,9.30
2019-05-18T03:00:52.387Z,9.30
2019-05-18T03:03:22.229Z,9.20
2019-05-18T03:05:51.971Z,9.10
2019-05-18T03:08:23.123Z,9.20
2019-05-18T03:10:53.916Z,9.10
2019-05-18T03:13:24.159Z,9.00
2019-05-18T03:15:53.880Z,9.10
2019-05-18T03:18:23.556Z,9.20
2019-05-18T03:20:53.312Z,9.10
2019-05-18T03:23:23.756Z,9.10
2019-05-18T03:25:53.897Z,9.10
2019-05-18T03:28:23.408Z,9.00
2019-05-18T03:30:53.530Z,9.10
2019-05-18T03:33:29.003Z,9.00
2019-05-18T03:35:55.321Z,9.00
2019-05-18T03:38:25.701Z,9.10
2019-05-18T03:40:55.633Z,9.10
2019-05-18T03:43:27.114Z,9.00
2019-05-18T03:45:56.729Z,9.10
2019-05-18T03:48:26.213Z,9.20
2019-05-18T03:50:59.912Z,9.20
2019-05-18T03:53:29.589Z,9.10
2019-05-18T03:55:59.987Z,9.00
2019-05-18T03:58:29.333Z,9.00
2019-05-18T04:00:58.717Z,9.00
2019-05-18T04:03:34.824Z,9.00
2019-05-18T04:06:04.217Z,9.00
2019-05-18T04:08:33.623Z,9.10
2019-05-18T04:11:07.706Z,9.10
2019-05-18T04:13:37.098Z,9.10
2019-05-18T04:16:07.747Z,9.20
2019-05-18T04:18:37.160Z,9.20
2019-05-18T04:21:08.705Z,9.10
2019-05-18T04:23:38.339Z,9.10
2019-05-18T04:26:08.065Z,9.20
2019-05-18T04:28:37.949Z,9.20
2019-05-18T04:31:12.627Z,9.10
2019-05-18T04:33:44.019Z,9.20
2019-05-18T04:36:13.364Z,9.30
2019-05-18T04:38:42.775Z,9.30
2019-05-18T04:41:14.623Z,9.30
2019-05-18T04:43:49.325Z,9.30
2019-05-18T04:46:18.842Z,9.40
2019-05-18T04:48:48.396Z,9.50
2019-05-18T04:51:18.117Z,9.50
2019-05-18T04:53:47.487Z,9.50
2019-05-18T04:56:18.219Z,9.60
2019-05-18T04:58:47.913Z,9.80
2019-05-18T05:01:18.031Z,9.80
2019-05-18T05:03:47.460Z,9.90
2019-05-18T05:06:20.506Z,10.00
2019-05-18T05:08:49.877Z,10.00
2019-05-18T05:11:19.868Z,9.90
2019-05-18T05:13:49.273Z,10.10
2019-05-18T05:16:19.025Z,10.10
2019-05-18T05:18:48.513Z,10.10
2019-05-18T05:21:18.108Z,10.30
2019-05-18T05:23:47.500Z,10.30
2019-05-18T05:26:17.734Z,10.50
2019-05-18T05:28:47.117Z,10.60
2019-05-18T05:31:17.963Z,10.80
2019-05-18T05:33:55.663Z,10.80
2019-05-18T05:36:25.801Z,10.80
2019-05-18T05:38:55.373Z,11.00
2019-05-18T05:41:25.041Z,11.20
2019-05-18T05:43:54.844Z,11.30
2019-05-18T05:46:25.581Z,11.50
2019-05-18T05:48:55.277Z,11.90
2019-05-18T05:51:24.764Z,12.60
2019-05-18T05:53:54.169Z,13.80
2019-05-18T05:56:25.091Z,15.30
2019-05-18T05:58:55.242Z,16.90
2019-05-18T06:01:24.630Z,18.00
2019-05-18T06:03:54.712Z,19.40
2019-05-18T06:06:24.093Z,19.80
2019-05-18T06:08:53.482Z,20.50
2019-05-18T06:11:22.986Z,21.90
2019-05-18T06:13:52.357Z,21.60
2019-05-18T06:16:21.753Z,22.10
2019-05-18T06:18:51.646Z,22.90
2019-05-18T06:21:21.561Z,23.50
2019-05-18T06:23:51.009Z,23.40
2019-05-18T06:26:20.442Z,24.10
2019-05-18T06:28:50.893Z,24.90
2019-05-18T06:31:22.982Z,25.10
2019-05-18T06:33:51.308Z,25.80
2019-05-18T06:36:20.735Z,26.50
2019-05-18T06:38:50.733Z,27.10
2019-05-18T06:41:23.856Z,27.90
2019-05-18T06:43:58.490Z,27.90
2019-05-18T06:46:29.509Z,27.80
2019-05-18T06:48:59.591Z,27.80
2019-05-18T06:51:28.962Z,27.80
2019-05-18T06:53:58.446Z,27.90
2019-05-18T06:56:29.045Z,28.40
2019-05-18T06:59:00.236Z,28.80
2019-05-18T07:01:33.081Z,28.60
2019-05-18T07:04:02.517Z,28.80
2019-05-18T07:06:31.949Z,29.70
2019-05-18T07:09:02.374Z,31.10
2019-05-18T07:11:32.928Z,31.80
2019-05-18T07:14:03.261Z,32.00
2019-05-18T07:16:36.036Z,32.50
2019-05-18T07:19:05.919Z,32.70
2019-05-18T07:21:38.756Z,33.20
2019-05-18T07:24:11.327Z,33.50
2019-05-18T07:26:47.896Z,34.10
2019-05-18T07:29:18.105Z,34.30
2019-05-18T07:31:48.769Z,33.20
2019-05-18T07:34:19.312Z,33.00
2019-05-18T07:36:49.368Z,33.40
2019-05-18T07:39:19.584Z,34.40
2019-05-18T07:41:51.355Z,35.30
2019-05-18T07:44:22.903Z,34.90
2019-05-18T07:46:58.109Z,35.20
2019-05-18T07:49:27.013Z,34.70
2019-05-18T07:51:56.398Z,34.40
2019-05-18T07:54:26.646Z,35.10
2019-05-18T07:56:58.029Z,35.40
2019-05-18T07:59:27.900Z,36.00
2019-05-18T08:01:59.968Z,35.40
2019-05-18T08:04:30.298Z,35.20
2019-05-18T08:06:59.661Z,35.20
2019-05-18T08:09:29.066Z,35.90
2019-05-18T08:11:58.801Z,35.30
2019-05-18T08:14:28.935Z,35.40
2019-05-18T08:16:58.851Z,36.40
2019-05-18T08:19:32.297Z,37.50
2019-05-18T08:22:02.280Z,38.60
2019-05-18T08:24:31.627Z,39.20
2019-05-18T08:27:05.390Z,39.40
2019-05-18T08:29:36.112Z,40.00
2019-05-18T08:32:06.217Z,39.70
2019-05-18T08:34:36.691Z,39.90
2019-05-18T08:37:06.467Z,39.40
2019-05-18T08:42:05.180Z,37.10
2019-05-18T08:44:35.840Z,36.30
2019-05-18T08:47:06.192Z,36.40
2019-05-18T08:49:39.466Z,36.80
2019-05-18T08:52:09.501Z,36.20
2019-05-18T08:54:39.713Z,36.20
2019-05-18T08:57:09.923Z,36.10
2019-05-18T08:59:40.586Z,35.20
2019-05-18T09:02:09.967Z,35.90
2019-05-18T09:04:45.355Z,36.70
2019-05-18T09:07:22.926Z,37.20
2019-05-18T09:09:52.280Z,38.30
2019-05-18T09:12:25.318Z,39.10
2019-05-18T09:15:01.335Z,39.30
2019-05-18T09:17:30.734Z,39.40
2019-05-18T09:20:08.453Z,39.70
2019-05-18T09:25:10.692Z,40.50
2019-05-18T09:27:42.454Z,40.10
2019-05-18T09:30:13.285Z,39.60
2019-05-18T09:32:46.769Z,39.30
2019-05-18T09:35:25.549Z,39.00
2019-05-18T09:37:55.258Z,38.80
2019-05-18T09:40:30.993Z,38.00
2019-05-18T09:43:00.873Z,38.30
2019-05-18T09:45:30.724Z,37.10
2019-05-18T09:48:00.120Z,37.50
2019-05-18T09:50:37.346Z,37.50
2019-05-18T09:53:11.193Z,37.60
2019-05-18T09:55:45.168Z,36.80
2019-05-18T09:58:16.586Z,35.90
2019-05-18T10:00:47.333Z,35.40
2019-05-18T10:03:18.433Z,34.50
2019-05-18T10:05:49.712Z,33.70
2019-05-18T10:08:21.529Z,32.80
2019-05-18T10:10:53.019Z,32.00
2019-05-18T10:13:23.135Z,31.10
2019-05-18T10:15:54.861Z,30.30
2019-05-18T10:18:29.785Z,29.60
2019-05-18T10:21:05.711Z,29.20
2019-05-18T10:23:36.169Z,28.90
2019-05-18T10:26:06.752Z,28.30
2019-05-18T10:28:42.598Z,27.90
2019-05-18T10:31:12.976Z,27.80
2019-05-18T10:33:47.197Z,27.60
2019-05-18T10:36:21.815Z,27.20
2019-05-18T10:38:53.893Z,26.60
2019-05-18T10:41:23.894Z,26.00
2019-05-18T10:43:54.058Z,26.00
2019-05-18T10:46:27.420Z,25.70
2019-05-18T10:48:57.577Z,25.20
2019-05-18T10:51:28.241Z,25.00
2019-05-18T10:53:58.297Z,25.10
2019-05-18T10:56:31.184Z,25.20
2019-05-18T10:59:04.485Z,25.30
2019-05-18T11:01:39.247Z,25.40
2019-05-18T11:04:09.345Z,25.40
2019-05-18T11:06:40.909Z,24.80
2019-05-18T11:09:11.331Z,24.40
2019-05-18T11:11:44.992Z,24.20
2019-05-18T11:14:18.731Z,24.00
2019-05-18T11:16:47.077Z,24.00
2019-05-18T11:19:18.720Z,23.90
2019-05-18T11:21:52.147Z,24.00
2019-05-18T11:24:24.267Z,24.00
2019-05-18T11:26:53.875Z,23.60
2019-05-18T11:29:24.239Z,23.30
2019-05-18T11:31:57.315Z,23.40
2019-05-18T11:34:33.316Z,23.50
2019-05-18T11:37:05.596Z,23.70
2019-05-18T11:39:41.116Z,23.80
2019-05-18T11:42:12.132Z,24.00
2019-05-18T11:44:49.557Z,23.90
2019-05-18T11:47:25.401Z,23.80
2019-05-18T11:49:55.125Z,23.70
2019-05-18T11:52:25.071Z,24.00
2019-05-18T11:54:54.444Z,24.30
2019-05-18T11:57:24.341Z,24.60
2019-05-18T11:59:54.012Z,24.70
2019-05-18T12:02:24.777Z,24.50
2019-05-18T12:04:59.661Z,24.10
2019-05-18T12:07:34.688Z,24.10
2019-05-18T12:10:10.132Z,24.10
2019-05-18T12:12:39.697Z,24.10
2019-05-18T12:15:13.402Z,24.00
2019-05-18T12:17:43.793Z,24.10
2019-05-18T12:20:16.253Z,24.40
2019-05-18T12:22:47.381Z,24.50
2019-05-18T12:25:19.394Z,24.60
2019-05-18T12:27:48.708Z,24.30
2019-05-18T12:30:22.000Z,24.30
2019-05-18T12:32:56.061Z,24.50
2019-05-18T12:35:27.482Z,24.50
2019-05-18T12:38:01.381Z,24.30
2019-05-18T12:40:35.454Z,24.20
2019-05-18T12:43:05.479Z,24.30
2019-05-18T12:45:41.309Z,24.30
2019-05-18T12:48:14.220Z,24.20
2019-05-18T12:50:47.677Z,24.20
2019-05-18T12:53:18.389Z,24.30
2019-05-18T12:55:48.146Z,24.20
2019-05-18T12:58:22.270Z,24.30
2019-05-18T13:00:52.956Z,24.50
2019-05-18T13:03:24.314Z,24.60
2019-05-18T13:05:54.050Z,24.70
2019-05-18T13:08:29.772Z,24.70
2019-05-18T13:10:59.190Z,24.90
2019-05-18T13:13:33.669Z,24.90
2019-05-18T13:16:03.125Z,24.90
2019-05-18T13:18:35.866Z,25.00
2019-05-18T13:21:09.183Z,25.10
2019-05-18T13:23:38.890Z,24.90
2019-05-18T13:26:09.832Z,24.80
2019-05-18T13:28:41.202Z,24.80
2019-05-18T13:31:10.614Z,24.70
2019-05-18T13:33:40.102Z,24.80
2019-05-18T13:36:09.496Z,24.60
2019-05-18T13:38:40.616Z,24.60
2019-05-18T13:41:13.082Z,24.80
2019-05-18T13:43:42.429Z,24.90
2019-05-18T13:46:12.149Z,25.00
2019-05-18T13:48:47.899Z,25.20
2019-05-18T13:51:24.407Z,25.30
2019-05-18T13:53:54.036Z,25.40
2019-05-18T13:56:24.299Z,25.40
2019-05-18T13:58:56.908Z,25.30
2019-05-18T14:01:26.329Z,25.20
2019-05-18T14:03:56.076Z,24.90
2019-05-18T14:06:29.847Z,24.80
2019-05-18T14:09:00.112Z,24.80
2019-05-18T14:11:30.176Z,24.60
2019-05-18T14:14:01.651Z,24.60
2019-05-18T14:16:35.365Z,24.40
2019-05-18T14:19:05.169Z,24.40
2019-05-18T14:21:37.192Z,24.40
2019-05-18T14:24:12.388Z,24.50
2019-05-18T14:26:42.878Z,24.50
2019-05-18T14:29:12.265Z,24.30
2019-05-18T14:31:41.685Z,24.00
2019-05-18T14:34:12.567Z,24.00
2019-05-18T14:36:46.189Z,23.80
2019-05-18T14:39:17.616Z,24.00
2019-05-18T14:41:47.528Z,24.00
2019-05-18T14:44:22.372Z,23.80
2019-05-18T14:46:53.291Z,23.90
2019-05-18T14:49:22.668Z,23.80
2019-05-18T14:51:52.092Z,23.70
2019-05-18T14:54:25.374Z,23.80
2019-05-18T14:56:56.370Z,23.90
2019-05-18T14:59:29.955Z,23.90
2019-05-18T15:01:59.380Z,24.10
2019-05-18T15:04:29.438Z,24.10
2019-05-18T15:07:03.079Z,24.10
2019-05-18T15:09:35.718Z,23.80
2019-05-18T15:12:05.085Z,23.70
2019-05-18T15:14:41.350Z,23.80
2019-05-18T15:17:11.746Z,23.80
2019-05-18T15:19:44.582Z,23.70
2019-05-18T15:22:20.237Z,23.80
2019-05-18T15:24:56.289Z,24.00
2019-05-18T15:27:28.030Z,23.90
2019-05-18T15:29:57.674Z,23.90
2019-05-18T15:32:32.797Z,24.00
2019-05-18T15:35:08.988Z,23.90
2019-05-18T15:37:43.560Z,23.80
2019-05-18T15:40:13.507Z,23.80
2019-05-18T15:42:44.109Z,23.90
2019-05-18T15:45:17.524Z,23.90
2019-05-18T15:47:47.584Z,23.70
2019-05-18T15:50:23.530Z,23.70
2019-05-18T15:52:58.483Z,23.60
2019-05-18T15:55:29.759Z,23.60
2019-05-18T15:58:02.329Z,23.70
2019-05-18T16:00:31.672Z,23.90
2019-05-18T16:03:01.290Z,23.80
2019-05-18T16:05:31.403Z,23.80
2019-05-18T16:08:07.682Z,23.70
2019-05-18T16:10:44.065Z,23.60
2019-05-18T16:13:15.886Z,23.60
2019-05-18T16:15:49.592Z,23.60
2019-05-18T16:18:25.962Z,23.70
2019-05-18T16:20:55.866Z,23.70
2019-05-18T16:23:28.171Z,23.60
2019-05-18T16:25:58.987Z,23.60
2019-05-18T16:28:32.219Z,23.50
2019-05-18T16:31:04.261Z,23.40
2019-05-18T16:33:36.800Z,23.30
2019-05-18T16:36:07.832Z,23.00
2019-05-18T16:38:41.049Z,22.80
2019-05-18T16:41:14.194Z,22.70
2019-05-18T16:43:44.601Z,22.50
2019-05-18T16:46:18.367Z,22.40
2019-05-18T16:48:49.398Z,22.40
2019-05-18T16:51:20.684Z,22.40
2019-05-18T16:53:51.653Z,22.40
2019-05-18T16:56:34.632Z,22.50
2019-05-18T16:58:56.167Z,22.50
2019-05-18T17:01:26.344Z,22.40
2019-05-18T17:03:56.739Z,22.30
2019-05-18T17:06:26.960Z,22.30
2019-05-18T17:09:00.363Z,22.20
2019-05-18T17:11:30.093Z,22.20
2019-05-18T17:14:03.167Z,22.10
2019-05-18T17:16:36.643Z,22.20
2019-05-18T17:19:06.034Z,22.30
2019-05-18T17:21:36.682Z,22.30
2019-05-18T17:24:07.020Z,22.20
2019-05-18T17:26:52.188Z,22.10
2019-05-18T17:29:17.940Z,22.00
2019-05-18T17:31:50.480Z,21.90
2019-05-18T17:34:20.028Z,21.80
2019-05-18T17:36:56.766Z,21.70
2019-05-18T17:39:26.451Z,21.60
2019-05-18T17:41:56.976Z,21.50
2019-05-18T17:44:31.424Z,21.40
2019-05-18T17:47:00.801Z,21.30
2019-05-18T17:49:30.820Z,21.10
2019-05-18T17:52:00.572Z,21.10
2019-05-18T17:54:35.315Z,21.00
2019-05-18T17:57:08.568Z,20.90
2019-05-18T17:59:36.105Z,20.80
2019-05-18T18:02:06.106Z,20.70
2019-05-18T18:04:36.168Z,20.70
2019-05-18T18:07:05.995Z,20.60
2019-05-18T18:09:35.697Z,20.50
2019-05-18T18:12:05.725Z,20.40
2019-05-18T18:14:35.654Z,20.30
2019-05-18T18:17:05.041Z,20.30
2019-05-18T18:19:34.850Z,20.20
2019-05-18T18:22:04.440Z,20.10
2019-05-18T18:24:41.276Z,20.00
2019-05-18T18:27:24.935Z,19.90
2019-05-18T18:29:47.048Z,19.80
2019-05-18T18:32:18.935Z,19.70
2019-05-18T18:34:48.951Z,19.50
2019-05-18T18:37:18.769Z,19.50
2019-05-18T18:39:48.192Z,19.30
2019-05-18T18:42:24.703Z,19.30
2019-05-18T18:44:54.085Z,19.20
2019-05-18T18:47:23.480Z,19.00
2019-05-18T18:49:53.893Z,18.90
2019-05-18T18:52:29.134Z,18.80
2019-05-18T18:55:04.125Z,18.80
2019-05-18T18:57:41.109Z,18.80
2019-05-18T19:00:09.066Z,18.70
2019-05-18T19:02:38.645Z,18.60
2019-05-18T19:05:09.311Z,18.60
2019-05-18T19:07:38.715Z,18.50
2019-05-18T19:10:10.185Z,18.40
2019-05-18T19:12:42.010Z,18.30
2019-05-18T19:15:12.285Z,18.30
2019-05-18T19:17:44.874Z,18.20
2019-05-18T19:20:18.758Z,18.20
2019-05-18T19:22:48.424Z,18.10
2019-05-18T19:25:18.339Z,17.90
2019-05-18T19:27:55.015Z,17.90
2019-05-18T19:30:19.707Z,17.90
2019-05-18T19:32:50.032Z,17.70
2019-05-18T19:35:20.834Z,17.70
2019-05-18T19:37:50.790Z,17.70
2019-05-18T19:40:25.951Z,17.50
2019-05-18T19:42:57.555Z,17.50
2019-05-18T19:45:27.724Z,17.30
2019-05-18T19:48:01.154Z,17.30
2019-05-18T19:50:34.607Z,17.30
2019-05-18T19:53:05.686Z,17.20
2019-05-18T19:55:36.265Z,17.10
2019-05-18T19:58:08.823Z,17.00
2019-05-18T20:00:38.346Z,16.80
2019-05-18T20:03:13.010Z,16.80
2019-05-18T20:05:40.822Z,16.70
2019-05-18T20:08:12.645Z,16.60
2019-05-18T20:10:42.409Z,16.50
2019-05-18T20:13:11.946Z,16.40
2019-05-18T20:15:43.041Z,16.40
2019-05-18T20:18:13.587Z,16.30
2019-05-18T20:20:46.531Z,16.40
2019-05-18T20:23:17.397Z,16.30
2019-05-18T20:25:47.288Z,16.30
2019-05-18T20:28:23.683Z,16.30
2019-05-18T20:30:49.937Z,16.20
2019-05-18T20:33:19.601Z,16.20
2019-05-18T20:35:52.802Z,16.10
2019-05-18T20:38:22.755Z,16.10
2019-05-18T20:40:54.106Z,16.00
2019-05-18T20:43:23.775Z,16.00
2019-05-18T20:45:54.836Z,16.00
2019-05-18T20:48:24.962Z,15.90
2019-05-18T20:50:55.208Z,15.90
2019-05-18T20:53:26.588Z,15.80
2019-05-18T20:55:57.304Z,15.80
2019-05-18T20:58:39.201Z,15.70
2019-05-18T21:01:00.397Z,15.70
2019-05-18T21:03:29.782Z,15.70
2019-05-18T21:06:01.051Z,15.70
2019-05-18T21:08:32.081Z,15.60
2019-05-18T21:11:07.898Z,15.60
2019-05-18T21:13:37.546Z,15.60
2019-05-18T21:16:07.908Z,15.50
2019-05-18T21:18:37.864Z,15.50
2019-05-18T21:21:09.991Z,15.50
2019-05-18T21:23:40.034Z,15.50
2019-05-18T21:26:10.733Z,15.50
2019-05-18T21:28:54.825Z,15.40
2019-05-18T21:31:17.849Z,15.40
2019-05-18T21:33:47.288Z,15.40
2019-05-18T21:36:18.421Z,15.40
2019-05-18T21:38:48.601Z,15.30
2019-05-18T21:41:21.517Z,15.20
2019-05-18T21:43:50.975Z,15.20
2019-05-18T21:46:22.092Z,15.10
2019-05-18T21:48:52.941Z,15.00
2019-05-18T21:51:23.041Z,14.90
2019-05-18T21:53:52.730Z,14.80
2019-05-18T21:56:23.328Z,14.70
2019-05-18T21:59:10.608Z,14.70
2019-05-18T22:01:28.384Z,14.60
2019-05-18T22:03:57.924Z,14.60
2019-05-18T22:06:31.076Z,14.60
2019-05-18T22:09:01.024Z,14.50
2019-05-18T22:11:33.282Z,14.60
2019-05-18T22:14:03.074Z,14.50
2019-05-18T22:16:33.110Z,14.60
2019-05-18T22:19:04.031Z,14.50
2019-05-18T22:21:34.592Z,14.40
2019-05-18T22:24:04.778Z,14.30
2019-05-18T22:26:34.593Z,14.20
2019-05-18T22:29:04.946Z,14.20
2019-05-18T22:31:34.305Z,14.10
2019-05-18T22:34:03.695Z,14.00
2019-05-18T22:36:33.875Z,14.10
2019-05-18T22:39:03.545Z,14.20
2019-05-18T22:41:33.581Z,14.00
2019-05-18T22:44:04.296Z,14.00
2019-05-18T22:46:36.720Z,14.00
2019-05-18T22:49:06.955Z,14.10
2019-05-18T22:51:36.850Z,13.90
2019-05-18T22:54:06.836Z,13.90
2019-05-18T22:56:36.673Z,13.80
2019-05-18T22:59:06.815Z,13.70
2019-05-18T23:01:36.716Z,13.60
2019-05-18T23:04:06.595Z,13.60
2019-05-18T23:06:36.681Z,13.60
2019-05-18T23:09:07.633Z,13.60
2019-05-18T23:11:37.840Z,13.60
2019-05-18T23:14:08.154Z,13.50
2019-05-18T23:16:38.099Z,13.40
2019-05-18T23:19:07.934Z,13.40
2019-05-18T23:21:37.352Z,13.30
2019-05-18T23:24:07.742Z,13.30
2019-05-18T23:26:38.082Z,13.20
2019-05-18T23:29:10.987Z,13.00
2019-05-18T23:31:40.380Z,12.90
2019-05-18T23:34:14.888Z,12.70
2019-05-18T23:36:45.098Z,12.70
2019-05-18T23:39:16.537Z,12.70
2019-05-18T23:41:46.417Z,12.80
2019-05-18T23:44:18.319Z,12.70
2019-05-18T23:46:47.682Z,12.70
2019-05-18T23:49:17.997Z,12.80
2019-05-18T23:51:49.307Z,12.70
2019-05-18T23:54:19.442Z,12.70
2019-05-18T23:56:49.529Z,12.50
2019-05-18T23:59:18.997Z,12.50
